Portada
METAR-TAF:

METAR-TAF

Aeroports :

Coles County Memorial Airport

Mattoon-Charleston, Illinois, Estats Units d'Amèrica

latitud: 39-28-41N, longitud: 088-16-45W, altitud: 220 m

Observació

L'informe es va fer fa 27 minuts, a les 22:53 UTC
Vent 3 kt del Sud-Oest
Temperatura 21°C
Humitat 88%
Pressió 1012 hPa
Visibilitat: 6.4 km
Escasses núvols a una alçada de 8000 ft
Cel ennuvolat a una alçada de 11000 ft
pluja, boirina

METAR: KMTO 242253Z AUTO 22003KT 4SM -RA BR FEW080 BKN110 21/19 A2989 RMK AO2 PK WND 19026/2214 LTG DSNT N AND NE RAB40 TSE03 PRESFR SLP117 P0000 T02110189

Hora: 18:20 (23:20 UTC)


TAF: manca

Observacions i pronòstics meteorològics de més de 4000 aeroports (METAR i TAF).

Les estacions disponibles són els punts grocs i vermells al mapa.

Posi el ratolí al punt desitjat per veure el nom de l'estació.

Feu clic per veure les observacions i els pronòstics meteorològics.

Per canviar el mapa: feu clic els botons verds amb una creu de color negre per apropar; al botó verd amb un guió per allunyar la imatge; o en les fletxes verdes per a mapes adjacents.


METAR-TAF: